createdAt,value
2022-10-20T00:00:55.500Z,6.08
2022-10-20T00:03:24.600Z,6.06
2022-10-20T00:05:52.558Z,6.02
2022-10-20T00:08:20.151Z,6.00
2022-10-20T00:10:54.461Z,6.00
2022-10-20T00:13:22.073Z,6.00
2022-10-20T00:15:50.309Z,5.98
2022-10-20T00:18:17.906Z,5.97
2022-10-20T00:20:47.356Z,5.95
2022-10-20T00:23:15.049Z,5.94
2022-10-20T00:25:42.653Z,5.91
2022-10-20T00:28:10.447Z,5.89
2022-10-20T00:30:39.869Z,5.87
2022-10-20T00:33:07.835Z,5.89
2022-10-20T00:35:39.173Z,5.89
2022-10-20T00:38:08.086Z,5.89
2022-10-20T00:40:35.638Z,5.92
2022-10-20T00:43:03.159Z,5.94
2022-10-20T00:45:30.806Z,5.94
2022-10-20T00:48:02.802Z,5.98
2022-10-20T00:50:34.733Z,6.00
2022-10-20T00:53:03.170Z,6.04
2022-10-20T00:55:35.042Z,6.07
2022-10-20T00:58:04.117Z,6.09
2022-10-20T01:00:31.990Z,6.11
2022-10-20T01:03:03.457Z,6.13
2022-10-20T01:05:31.117Z,6.15
2022-10-20T01:07:58.629Z,6.17
2022-10-20T01:10:33.653Z,6.19
2022-10-20T01:13:09.548Z,6.21
2022-10-20T01:15:46.162Z,6.23
2022-10-20T01:18:22.079Z,6.22
2022-10-20T01:21:13.957Z,6.21
2022-10-20T01:24:13.117Z,6.23
2022-10-20T01:27:26.390Z,6.21
2022-10-20T01:30:02.442Z,6.19
2022-10-20T01:32:38.871Z,6.20
2022-10-20T01:35:12.709Z,6.20
2022-10-20T01:37:49.577Z,6.20
2022-10-20T01:40:23.227Z,6.18
2022-10-20T01:42:55.073Z,6.19
2022-10-20T01:45:25.454Z,6.17
2022-10-20T01:47:55.049Z,6.17
2022-10-20T01:50:24.319Z,6.15
2022-10-20T01:52:57.632Z,6.12
2022-10-20T01:55:25.309Z,6.12
2022-10-20T01:58:10.827Z,6.11
2022-10-20T02:00:40.273Z,6.08
2022-10-20T02:03:26.804Z,6.06
2022-10-20T02:06:09.642Z,6.04
2022-10-20T02:08:42.884Z,6.00
2022-10-20T02:11:17.395Z,6.02
2022-10-20T02:13:47.053Z,6.01
2022-10-20T02:16:21.227Z,6.00
2022-10-20T02:18:49.773Z,5.98
2022-10-20T02:21:17.669Z,5.96
2022-10-20T02:23:47.917Z,5.93
2022-10-20T02:26:19.018Z,5.91
2022-10-20T02:28:53.366Z,5.89
2022-10-20T02:31:21.932Z,5.87
2022-10-20T02:33:49.964Z,5.84
2022-10-20T02:36:20.284Z,5.80
2022-10-20T02:38:48.212Z,5.76
2022-10-20T02:41:15.746Z,5.72
2022-10-20T02:43:43.611Z,5.67
2022-10-20T02:46:12.594Z,5.64
2022-10-20T02:48:40.514Z,5.62
2022-10-20T02:51:08.041Z,5.60
2022-10-20T02:53:35.582Z,5.61
2022-10-20T02:56:03.120Z,5.59
2022-10-20T02:58:30.645Z,5.57
2022-10-20T03:00:58.233Z,5.55
2022-10-20T03:03:27.233Z,5.55
2022-10-20T03:05:54.809Z,5.52
2022-10-20T03:08:23.170Z,5.51
2022-10-20T03:10:50.705Z,5.51
2022-10-20T03:13:18.241Z,5.50
2022-10-20T03:15:45.777Z,5.51
2022-10-20T03:18:13.312Z,5.49
2022-10-20T03:20:42.201Z,5.50
2022-10-20T03:23:09.726Z,5.48
2022-10-20T03:25:37.330Z,5.47
2022-10-20T03:28:05.107Z,5.46
2022-10-20T03:30:32.633Z,5.43
2022-10-20T03:33:00.177Z,5.43
2022-10-20T03:35:27.725Z,5.42
2022-10-20T03:37:56.622Z,5.40
2022-10-20T03:40:24.300Z,5.41
2022-10-20T03:42:52.038Z,5.40
2022-10-20T03:45:19.590Z,5.39
2022-10-20T03:47:47.167Z,5.38
2022-10-20T03:50:14.710Z,5.39
2022-10-20T03:52:42.245Z,5.39
2022-10-20T03:55:11.283Z,5.38
2022-10-20T03:57:39.031Z,5.39
2022-10-20T04:00:07.939Z,5.38
2022-10-20T04:02:38.468Z,5.38
2022-10-20T04:05:07.330Z,5.37
2022-10-20T04:07:35.978Z,5.38
2022-10-20T04:10:03.523Z,5.38
2022-10-20T04:12:32.883Z,5.37
2022-10-20T04:15:00.594Z,5.36
2022-10-20T04:17:28.809Z,5.37
2022-10-20T04:19:56.358Z,5.35
2022-10-20T04:22:24.709Z,5.36
2022-10-20T04:24:52.248Z,5.36
2022-10-20T04:27:19.790Z,5.38
2022-10-20T04:29:49.479Z,5.36
2022-10-20T04:32:17.564Z,5.35
2022-10-20T04:34:45.082Z,5.33
2022-10-20T04:37:12.646Z,5.32
2022-10-20T04:39:40.175Z,5.31
2022-10-20T04:42:07.726Z,5.32
2022-10-20T04:44:35.254Z,5.32
2022-10-20T04:47:04.114Z,5.30
2022-10-20T04:49:31.683Z,5.30
2022-10-20T04:52:01.151Z,5.31
2022-10-20T04:54:29.577Z,5.32
2022-10-20T04:56:57.437Z,5.32
2022-10-20T04:59:25.278Z,5.28
2022-10-20T05:01:52.876Z,5.27
2022-10-20T05:04:22.006Z,5.27
2022-10-20T05:06:50.287Z,5.26
2022-10-20T05:09:17.850Z,5.24
2022-10-20T05:11:45.406Z,5.22
2022-10-20T05:14:12.951Z,5.20
2022-10-20T05:16:40.551Z,5.19
2022-10-20T05:19:08.141Z,5.17
2022-10-20T05:21:37.072Z,5.19
2022-10-20T05:24:06.238Z,5.18
2022-10-20T05:26:37.353Z,5.18
2022-10-20T05:29:06.294Z,5.19
2022-10-20T05:31:37.537Z,5.20
2022-10-20T05:34:05.068Z,5.20
2022-10-20T05:36:32.868Z,5.21
2022-10-20T05:39:01.838Z,5.23
2022-10-20T05:41:33.370Z,5.21
2022-10-20T05:44:06.019Z,5.21
2022-10-20T05:46:37.846Z,5.23
2022-10-20T05:49:05.400Z,5.24
2022-10-20T05:51:36.190Z,5.23
2022-10-20T05:54:05.426Z,5.24
2022-10-20T05:56:33.586Z,5.24
2022-10-20T05:59:01.103Z,5.26
2022-10-20T06:01:39.631Z,5.27
2022-10-20T06:04:08.907Z,5.28
2022-10-20T06:06:36.990Z,5.29
2022-10-20T06:09:07.712Z,5.32
2022-10-20T06:11:39.281Z,5.35
2022-10-20T06:14:08.312Z,5.37
2022-10-20T06:16:36.031Z,5.40
2022-10-20T06:19:04.010Z,5.46
2022-10-20T06:21:33.170Z,5.51
2022-10-20T06:24:01.826Z,5.55
2022-10-20T06:26:32.804Z,5.59
2022-10-20T06:29:04.395Z,5.66
2022-10-20T06:31:34.317Z,5.70
2022-10-20T06:34:02.496Z,5.75
2022-10-20T06:36:30.009Z,5.77
2022-10-20T06:39:01.670Z,5.79
2022-10-20T06:41:30.550Z,5.86
2022-10-20T06:43:59.824Z,5.92
2022-10-20T06:46:28.634Z,5.99
2022-10-20T06:48:58.681Z,6.04
2022-10-20T06:51:27.302Z,6.09
2022-10-20T06:53:54.966Z,6.20
2022-10-20T06:56:23.901Z,6.36
2022-10-20T06:58:54.762Z,6.58
2022-10-20T07:01:24.208Z,6.79
2022-10-20T07:03:53.894Z,6.98
2022-10-20T07:06:23.945Z,7.18
2022-10-20T07:08:53.562Z,7.38
2022-10-20T07:11:23.746Z,7.56
2022-10-20T07:13:53.280Z,7.67
2022-10-20T07:16:22.865Z,7.81
2022-10-20T07:18:51.014Z,7.84
2022-10-20T07:21:20.619Z,7.95
2022-10-20T07:23:49.638Z,7.96
2022-10-20T07:26:19.282Z,8.00
2022-10-20T07:28:53.194Z,8.06
2022-10-20T07:31:27.992Z,8.08
2022-10-20T07:34:06.959Z,8.09
2022-10-20T07:36:44.338Z,8.13
2022-10-20T07:39:13.567Z,8.08
2022-10-20T07:41:43.969Z,8.05
2022-10-20T07:44:11.523Z,8.03
2022-10-20T07:46:40.438Z,8.06
2022-10-20T07:51:55.534Z,8.23
2022-10-20T07:54:23.326Z,8.30
2022-10-20T07:56:51.570Z,8.43
2022-10-20T07:59:19.665Z,8.51
2022-10-20T08:01:48.913Z,8.65
2022-10-20T08:04:16.509Z,8.79
2022-10-20T08:06:44.055Z,8.78
2022-10-20T08:09:11.633Z,8.92
2022-10-20T08:11:39.227Z,8.99
2022-10-20T08:14:06.817Z,9.06
2022-10-20T08:16:44.367Z,9.21
2022-10-20T08:19:19.205Z,9.29
2022-10-20T08:21:47.090Z,9.40
2022-10-20T08:24:14.633Z,9.41
2022-10-20T08:26:42.186Z,9.42
2022-10-20T08:29:10.011Z,9.55
2022-10-20T08:31:37.886Z,9.47
2022-10-20T08:34:05.452Z,9.56
2022-10-20T08:36:37.295Z,9.58
2022-10-20T08:39:06.377Z,9.72
2022-10-20T08:41:55.324Z,9.79
2022-10-20T08:44:33.529Z,9.78
2022-10-20T08:47:03.165Z,9.82
2022-10-20T08:49:34.223Z,9.93
2022-10-20T08:52:03.597Z,9.95
2022-10-20T08:54:35.353Z,9.97
2022-10-20T08:57:02.918Z,10.06
2022-10-20T08:59:34.938Z,10.10
2022-10-20T09:02:04.787Z,10.16
2022-10-20T09:04:37.724Z,10.13
2022-10-20T09:07:14.448Z,10.32
2022-10-20T09:09:42.310Z,10.38
2022-10-20T09:12:14.897Z,10.76
2022-10-20T09:14:42.732Z,10.87
2022-10-20T09:17:16.807Z,10.98
2022-10-20T09:19:48.696Z,10.86
2022-10-20T09:22:18.265Z,10.92
2022-10-20T09:24:47.013Z,11.10
2022-10-20T09:27:24.464Z,11.09
2022-10-20T09:29:52.135Z,11.14
2022-10-20T09:32:48.173Z,11.30
2022-10-20T09:35:23.294Z,11.35
2022-10-20T09:37:59.862Z,11.66
2022-10-20T09:40:28.442Z,11.65
2022-10-20T09:42:58.110Z,11.70
2022-10-20T09:45:29.450Z,11.74
2022-10-20T09:48:02.507Z,11.78
2022-10-20T09:50:33.355Z,12.01
2022-10-20T09:53:05.714Z,11.94
2022-10-20T09:55:36.069Z,11.97
2022-10-20T09:58:06.057Z,12.05
2022-10-20T10:00:37.942Z,12.17
2022-10-20T10:03:11.807Z,12.32
2022-10-20T10:05:39.312Z,12.32
2022-10-20T10:08:14.975Z,12.26
2022-10-20T10:10:45.323Z,12.28
2022-10-20T10:13:25.676Z,12.35
2022-10-20T10:16:06.151Z,12.28
2022-10-20T10:18:35.262Z,12.24
2022-10-20T10:21:05.951Z,12.18
2022-10-20T10:23:36.509Z,12.29
2022-10-20T10:26:08.397Z,12.37
2022-10-20T10:28:38.563Z,12.50
2022-10-20T10:31:25.112Z,12.49
2022-10-20T10:33:57.035Z,12.52
2022-10-20T10:36:34.238Z,12.61
2022-10-20T10:39:05.537Z,12.73
2022-10-20T10:41:51.833Z,12.76
2022-10-20T10:44:32.503Z,12.74
2022-10-20T10:47:09.045Z,12.95
2022-10-20T10:49:46.227Z,13.15
2022-10-20T10:52:32.381Z,13.10
2022-10-20T10:55:21.267Z,13.04
2022-10-20T10:58:08.199Z,13.14
2022-10-20T11:00:45.934Z,13.29
2022-10-20T11:03:39.864Z,13.20
2022-10-20T11:06:17.915Z,13.19
2022-10-20T11:09:21.290Z,13.22
2022-10-20T11:12:15.290Z,13.26
2022-10-20T11:15:00.782Z,13.20
2022-10-20T11:17:44.887Z,13.42
2022-10-20T11:20:26.330Z,13.57
2022-10-20T11:23:17.607Z,13.49
2022-10-20T11:25:50.911Z,13.40
2022-10-20T11:28:30.402Z,13.37
2022-10-20T11:31:00.267Z,13.53
2022-10-20T11:33:43.002Z,13.72
2022-10-20T11:36:16.366Z,13.69
2022-10-20T11:38:50.505Z,13.56
2022-10-20T11:41:24.926Z,13.32
2022-10-20T11:44:00.138Z,13.37
2022-10-20T11:46:35.755Z,13.41
2022-10-20T11:49:04.689Z,13.49
2022-10-20T11:52:05.173Z,13.20
2022-10-20T11:54:45.241Z,13.16
2022-10-20T11:57:20.978Z,13.26
2022-10-20T12:00:12.975Z,13.28
2022-10-20T12:03:08.022Z,13.57
2022-10-20T12:06:09.030Z,13.74
2022-10-20T12:09:03.960Z,13.75
2022-10-20T12:11:39.745Z,13.64
2022-10-20T12:14:18.451Z,13.52
2022-10-20T12:17:28.457Z,13.56
2022-10-20T12:20:44.462Z,13.67
2022-10-20T12:23:44.503Z,13.89
2022-10-20T12:26:43.898Z,14.16
2022-10-20T12:29:54.145Z,14.31
2022-10-20T12:32:54.476Z,14.38
2022-10-20T12:36:00.178Z,14.65
2022-10-20T12:38:29.702Z,14.88
2022-10-20T12:41:00.366Z,14.78
2022-10-20T12:43:53.911Z,14.68
2022-10-20T12:46:26.631Z,14.75
2022-10-20T12:48:59.901Z,14.86
2022-10-20T12:51:40.936Z,14.70
2022-10-20T12:54:20.345Z,14.61
2022-10-20T12:56:49.610Z,14.53
2022-10-20T12:59:35.919Z,14.34
2022-10-20T13:02:39.850Z,14.16
2022-10-20T13:05:40.674Z,14.07
2022-10-20T13:08:23.831Z,14.05
2022-10-20T13:10:53.795Z,14.06
2022-10-20T13:13:57.594Z,13.91
2022-10-20T13:16:33.046Z,13.77
2022-10-20T13:19:01.362Z,13.77
2022-10-20T13:21:34.774Z,13.58
2022-10-20T13:24:14.494Z,13.58
2022-10-20T13:26:51.414Z,13.42
2022-10-20T13:29:23.186Z,13.35
2022-10-20T13:32:03.696Z,13.28
2022-10-20T13:34:37.260Z,13.40
2022-10-20T13:37:19.137Z,13.53
2022-10-20T13:40:00.314Z,13.57
2022-10-20T13:42:40.679Z,13.56
2022-10-20T13:45:19.619Z,13.46
2022-10-20T13:47:57.337Z,13.37
2022-10-20T13:50:28.967Z,13.34
2022-10-20T13:53:00.145Z,13.43
2022-10-20T13:55:31.294Z,13.46
2022-10-20T13:58:05.665Z,13.42
2022-10-20T14:00:36.048Z,13.48
2022-10-20T14:03:06.039Z,13.48
2022-10-20T14:05:39.239Z,13.46
2022-10-20T14:08:09.950Z,13.42
2022-10-20T14:10:44.902Z,13.38
2022-10-20T14:13:16.850Z,13.37
2022-10-20T14:15:48.131Z,13.26
2022-10-20T14:18:23.742Z,13.32
2022-10-20T14:21:02.503Z,13.32
2022-10-20T14:23:36.040Z,13.15
2022-10-20T14:26:07.622Z,13.12
2022-10-20T14:28:37.365Z,13.08
2022-10-20T14:31:05.833Z,12.97
2022-10-20T14:33:36.086Z,12.98
2022-10-20T14:36:04.661Z,12.97
2022-10-20T14:38:37.627Z,12.93
2022-10-20T14:41:09.479Z,12.84
2022-10-20T14:43:40.429Z,12.79
2022-10-20T14:46:10.158Z,12.82
2022-10-20T14:48:42.295Z,12.83
2022-10-20T14:51:30.946Z,12.78
2022-10-20T14:54:26.011Z,12.75
2022-10-20T14:56:56.984Z,12.73
2022-10-20T14:59:26.929Z,12.64
2022-10-20T15:02:08.519Z,12.62
2022-10-20T15:04:37.319Z,12.59
2022-10-20T15:07:08.018Z,12.54
2022-10-20T15:09:41.566Z,12.47
2022-10-20T15:12:17.106Z,12.35
2022-10-20T15:14:48.045Z,12.30
2022-10-20T15:17:36.134Z,12.25
2022-10-20T15:20:38.773Z,12.16
2022-10-20T15:23:09.317Z,12.09
2022-10-20T15:25:43.448Z,11.96
2022-10-20T15:28:35.393Z,11.93
2022-10-20T15:31:05.594Z,11.87
2022-10-20T15:33:33.522Z,11.76
2022-10-20T15:36:01.824Z,11.70
2022-10-20T15:38:29.681Z,11.60
2022-10-20T15:40:57.241Z,11.54
2022-10-20T15:43:24.831Z,11.46
2022-10-20T15:45:55.763Z,11.39
2022-10-20T15:48:25.941Z,11.35
2022-10-20T15:50:54.059Z,11.29
2022-10-20T15:53:21.783Z,11.22
2022-10-20T15:55:49.328Z,11.16
2022-10-20T15:58:17.004Z,11.08
2022-10-20T16:00:44.599Z,11.01
2022-10-20T16:03:17.614Z,10.94
2022-10-20T16:05:45.522Z,10.89
2022-10-20T16:10:45.533Z,10.78
2022-10-20T16:13:13.114Z,10.74
2022-10-20T16:15:40.651Z,10.71
2022-10-20T16:18:09.861Z,10.69
2022-10-20T16:20:39.116Z,10.66
2022-10-20T16:23:06.703Z,10.65
2022-10-20T16:25:34.318Z,10.65
2022-10-20T16:28:01.923Z,10.64
2022-10-20T16:30:29.492Z,10.64
2022-10-20T16:32:57.178Z,10.63
2022-10-20T16:35:24.745Z,10.64
2022-10-20T16:37:53.617Z,10.64
2022-10-20T16:40:21.216Z,10.65
2022-10-20T16:42:48.758Z,10.66
2022-10-20T16:45:16.574Z,10.66
2022-10-20T16:47:44.154Z,10.66
2022-10-20T16:50:12.038Z,10.67
2022-10-20T16:52:39.947Z,10.67
2022-10-20T16:55:10.038Z,10.68
2022-10-20T16:57:39.737Z,10.68
2022-10-20T17:00:09.606Z,10.67
2022-10-20T17:02:38.013Z,10.68
2022-10-20T17:05:09.107Z,10.70
2022-10-20T17:07:37.762Z,10.70
2022-10-20T17:10:06.425Z,10.72
2022-10-20T17:12:35.361Z,10.71
2022-10-20T17:15:02.888Z,10.69
2022-10-20T17:17:30.423Z,10.70
2022-10-20T17:19:57.937Z,10.69
2022-10-20T17:22:25.578Z,10.71
2022-10-20T17:24:53.101Z,10.72
2022-10-20T17:27:20.641Z,10.73
2022-10-20T17:29:49.525Z,10.75
2022-10-20T17:32:18.269Z,10.75
2022-10-20T17:34:46.015Z,10.79
2022-10-20T17:37:13.562Z,10.81
2022-10-20T17:39:41.217Z,10.82
2022-10-20T17:42:08.752Z,10.84
2022-10-20T17:44:36.307Z,10.84
2022-10-20T17:47:05.299Z,10.88
2022-10-20T17:49:32.810Z,10.90
2022-10-20T17:52:00.359Z,10.92
2022-10-20T17:54:27.885Z,10.93
2022-10-20T17:56:55.418Z,10.94
2022-10-20T17:59:23.054Z,10.97
2022-10-20T18:01:50.705Z,10.97
2022-10-20T18:04:19.714Z,10.98
2022-10-20T18:06:47.822Z,10.97
2022-10-20T18:09:18.374Z,11.00
2022-10-20T18:11:48.032Z,11.00
2022-10-20T18:14:16.915Z,11.02
2022-10-20T18:16:44.938Z,11.05
2022-10-20T18:19:15.669Z,11.04
2022-10-20T18:21:45.211Z,11.05
2022-10-20T18:24:14.962Z,11.02
2022-10-20T18:26:43.055Z,11.02
2022-10-20T18:29:11.874Z,11.01
2022-10-20T18:31:41.581Z,10.97
2022-10-20T18:34:10.559Z,10.95
2022-10-20T18:36:41.889Z,10.94
2022-10-20T18:39:15.739Z,10.91
2022-10-20T18:41:45.446Z,10.88
2022-10-20T18:44:14.853Z,10.83
2022-10-20T18:46:42.692Z,10.72
2022-10-20T18:49:13.063Z,10.66
2022-10-20T18:51:41.370Z,10.61
2022-10-20T18:54:12.929Z,10.57
2022-10-20T18:56:42.795Z,10.48
2022-10-20T18:59:13.814Z,10.45
2022-10-20T19:01:42.022Z,10.43
2022-10-20T19:04:11.266Z,10.37
2022-10-20T19:06:42.002Z,10.35
2022-10-20T19:09:11.716Z,10.32
2022-10-20T19:11:40.423Z,10.28
2022-10-20T19:14:11.432Z,10.27
2022-10-20T19:16:40.713Z,10.21
2022-10-20T19:19:09.276Z,10.21
2022-10-20T19:21:37.114Z,10.16
2022-10-20T19:24:07.130Z,10.17
2022-10-20T19:26:36.433Z,10.17
2022-10-20T19:29:07.486Z,10.14
2022-10-20T19:31:40.345Z,10.13
2022-10-20T19:34:11.283Z,10.13
2022-10-20T19:36:42.072Z,10.12
2022-10-20T19:39:12.130Z,10.09
2022-10-20T19:41:39.934Z,10.11
2022-10-20T19:44:07.521Z,10.13
2022-10-20T19:46:36.456Z,10.14
2022-10-20T19:49:04.410Z,10.15
2022-10-20T19:51:32.045Z,10.16
2022-10-20T19:53:59.590Z,10.16
2022-10-20T19:56:27.497Z,10.17
2022-10-20T19:58:55.085Z,10.15
2022-10-20T20:01:22.719Z,10.15
2022-10-20T20:03:51.661Z,10.15
2022-10-20T20:06:21.154Z,10.15
2022-10-20T20:08:51.016Z,10.15
2022-10-20T20:11:23.644Z,10.16
2022-10-20T20:13:53.498Z,10.19
2022-10-20T20:16:21.180Z,10.19
2022-10-20T20:18:48.991Z,10.19
2022-10-20T20:21:18.442Z,10.16
2022-10-20T20:24:01.630Z,10.18
2022-10-20T20:26:30.387Z,10.16
2022-10-20T20:28:58.343Z,10.15
2022-10-20T20:31:27.343Z,10.13
2022-10-20T20:33:56.566Z,10.09
2022-10-20T20:36:27.502Z,10.10
2022-10-20T20:38:57.500Z,10.08
2022-10-20T20:41:27.653Z,10.07
2022-10-20T20:43:55.373Z,10.05
2022-10-20T20:46:26.737Z,10.04
2022-10-20T20:48:54.521Z,10.06
2022-10-20T20:51:22.185Z,10.06
2022-10-20T20:53:51.034Z,10.02
2022-10-20T20:56:21.848Z,10.02
2022-10-20T20:58:55.115Z,10.01
2022-10-20T21:01:24.779Z,10.02
2022-10-20T21:03:53.987Z,10.02
2022-10-20T21:06:25.698Z,10.01
2022-10-20T21:09:03.009Z,10.01
2022-10-20T21:11:31.049Z,10.00
2022-10-20T21:13:59.773Z,10.00
2022-10-20T21:16:30.560Z,10.03
2022-10-20T21:18:59.624Z,10.04
2022-10-20T21:21:29.076Z,10.05
2022-10-20T21:23:58.553Z,10.06
2022-10-20T21:26:28.735Z,10.03
2022-10-20T21:28:56.620Z,10.04
2022-10-20T21:31:25.929Z,10.06
2022-10-20T21:33:55.127Z,10.06
2022-10-20T21:36:23.423Z,10.06
2022-10-20T21:38:52.145Z,10.07
2022-10-20T21:41:22.033Z,10.04
2022-10-20T21:43:52.838Z,10.03
2022-10-20T21:46:22.325Z,10.03
2022-10-20T21:48:51.454Z,9.99
2022-10-20T21:51:21.377Z,9.96
2022-10-20T21:53:49.648Z,9.97
2022-10-20T21:56:17.526Z,9.96
2022-10-20T21:58:45.041Z,9.95
2022-10-20T22:01:15.903Z,9.98
2022-10-20T22:03:44.059Z,9.99
2022-10-20T22:06:13.211Z,9.99
2022-10-20T22:08:43.247Z,9.99
2022-10-20T22:11:12.927Z,10.03
2022-10-20T22:13:40.682Z,10.02
2022-10-20T22:16:10.753Z,10.06
2022-10-20T22:18:40.189Z,10.05
2022-10-20T22:21:13.276Z,10.06
2022-10-20T22:23:41.457Z,10.07
2022-10-20T22:26:09.709Z,10.11
2022-10-20T22:28:38.095Z,10.12
2022-10-20T22:31:06.209Z,10.13
2022-10-20T22:33:33.738Z,10.15
2022-10-20T22:36:02.679Z,10.17
2022-10-20T22:38:30.191Z,10.17
2022-10-20T22:40:59.482Z,10.20
2022-10-20T22:43:27.357Z,10.22
2022-10-20T22:45:55.157Z,10.25
2022-10-20T22:48:22.842Z,10.25
2022-10-20T22:50:50.745Z,10.26
2022-10-20T22:53:19.703Z,10.25
2022-10-20T22:55:47.479Z,10.26
2022-10-20T22:58:15.061Z,10.28
2022-10-20T23:00:44.410Z,10.28
2022-10-20T23:03:12.322Z,10.28
2022-10-20T23:05:39.870Z,10.27
2022-10-20T23:08:07.487Z,10.27
2022-10-20T23:10:36.352Z,10.29
2022-10-20T23:13:03.899Z,10.30
2022-10-20T23:15:31.424Z,10.32
2022-10-20T23:17:58.954Z,10.31
2022-10-20T23:20:26.491Z,10.33
2022-10-20T23:22:54.005Z,10.34
2022-10-20T23:25:21.538Z,10.35
2022-10-20T23:27:50.431Z,10.36
2022-10-20T23:30:17.981Z,10.37
2022-10-20T23:32:45.570Z,10.39
2022-10-20T23:35:13.104Z,10.41
2022-10-20T23:37:40.763Z,10.41
2022-10-20T23:40:09.350Z,10.40
2022-10-20T23:42:36.871Z,10.41
2022-10-20T23:45:06.727Z,10.42
2022-10-20T23:47:34.279Z,10.43
2022-10-20T23:50:01.814Z,10.42
2022-10-20T23:52:29.440Z,10.42
2022-10-20T23:54:57.018Z,10.42
2022-10-20T23:57:24.673Z,10.43
2022-10-20T23:59:52.203Z,10.42
